Pietro Novelli — IOTQ — position and weather

sailwx.info

Track history (hours):
 
Tides and Currents Weather Stations Pressure Air Temp Water Temp Dewpoint Dewpoint Depression Visibility Wind Speed Wind Dir Waves Ship Positions

Pietro Novelli

Last reported at 2016-Aug-24 17:34 UTC. Time now 2016-Aug-24 17:57 UTC.
Position N 38°13' E 015°15'.

Length 91 m; draft 3.7 m.

Type: Ship. MMSI: 247000300.

Date/timePositionNaut miles runAvg speedWind from/ knotsBaromVisibWave heightAir tempDewpointWater temp
2016-Aug-24 17:34N 38°13' E 015°15'1212.2
2016-Aug-24 16:33N 38°22' E 015°05'8 8.5
2016-Aug-24 15:34N 38°28' E 014°58'7 6.4
2016-Aug-24 14:32N 38°33' E 014°53'15 7.0
2016-Aug-24 12:26N 38°33' E 014°34'0 0.0
2016-Aug-24 10:17N 38°33' E 014°34'15 8.1
2016-Aug-24 08:29N 38°33' E 014°53'7 7.4
2016-Aug-24 07:33N 38°29' E 014°59'3 3.4
2016-Aug-24 06:33N 38°25' E 014°58'18 5.8
2016-Aug-24 03:29N 38°13' E 015°15'0 0.0
2016-Aug-24 00:22N 38°13' E 015°15'0 0.0
2016-Aug-23 23:33N 38°13' E 015°15'0 0.0
2016-Aug-23 19:14N 38°13' E 015°15'0 0.0
2016-Aug-23 18:22N 38°13' E 015°15'7 8.9
2016-Aug-23 17:34N 38°19' E 015°10'1110.3
2016-Aug-23 16:28N 38°25' E 014°58'4 3.9
2016-Aug-23 15:33N 38°28' E 014°59'7 6.9
2016-Aug-23 14:33N 38°33' E 014°52'1111.0
2016-Aug-23 13:33N 38°38' E 015°05'6 5.3
2016-Aug-23 12:31N 38°43' E 015°08'7 7.0
2016-Aug-23 11:33N 38°48' E 015°14'9 6.5
2016-Aug-23 10:14N 38°42' E 015°06'6 8.2
2016-Aug-23 09:33N 38°37' E 015°02'8 8.0
2016-Aug-23 08:33N 38°33' E 014°54'6 5.5
2016-Aug-23 07:33N 38°28' E 014°57'3 3.4
2016-Aug-23 06:32N 38°25' E 014°59'1413.8
2016-Aug-23 05:33N 38°18' E 015°14'5 0.4
2016-Aug-22 19:10N 38°13' E 015°15'0 0.0
2016-Aug-22 18:17N 38°13' E 015°15'6 7.8
2016-Aug-22 17:33N 38°19' E 015°12'1310.6
2016-Aug-22 16:19N 38°25' E 014°58'3 4.4
2016-Aug-22 15:33N 38°28' E 014°57'6 6.1
2016-Aug-22 14:31N 38°33' E 014°52'0 0.0
2016-Aug-22 08:32N 38°33' E 014°52'6 6.6
2016-Aug-22 07:33N 38°28' E 014°57'3 3.4
2016-Aug-22 06:33N 38°25' E 014°59'1414.1
2016-Aug-22 05:33N 38°18' E 015°14'5 4.8
2016-Aug-22 04:33N 38°13' E 015°15'0 0.0
2016-Aug-22 03:33N 38°13' E 015°15'0 0.0
2016-Aug-22 02:33N 38°13' E 015°15'0 0.0
2016-Aug-22 01:33N 38°13' E 015°15'0 0.0
2016-Aug-22 00:33N 38°13' E 015°15'0 0.0
2016-Aug-21 23:33N 38°13' E 015°15'0 0.0
2016-Aug-21 22:33N 38°13' E 015°15'0 0.0
2016-Aug-21 21:33N 38°13' E 015°15'0 0.0
2016-Aug-21 20:33N 38°13' E 015°15'0 0.0
2016-Aug-21 19:33N 38°13' E 015°15'0 0.0
2016-Aug-21 18:33N 38°13' E 015°15'3 3.1
2016-Aug-21 17:33N 38°16' E 015°16'1413.8
2016-Aug-21 16:33N 38°24' E 015°01'6 5.6
2016-Aug-21 15:33N 38°28' E 014°57'6 5.8
2016-Aug-21 14:31N 38°33' E 014°53'14 6.9
2016-Aug-21 12:28N 38°34' E 014°35'1111.3
2016-Aug-21 11:32N 38°32' E 014°22'24 8.1
2016-Aug-21 08:33N 38°33' E 014°53'6 6.4
2016-Aug-21 07:33N 38°28' E 014°57'4 3.7
2016-Aug-21 06:33N 38°25' E 014°59'1413.9
2016-Aug-21 05:33N 38°18' E 015°14'5 4.6
2016-Aug-21 04:33N 38°13' E 015°15'0 0.0
2016-Aug-21 03:33N 38°13' E 015°15'0 0.0
2016-Aug-21 02:33N 38°13' E 015°15'0 0.0
2016-Aug-21 01:34N 38°13' E 015°15'0 0.0
2016-Aug-21 00:33N 38°13' E 015°15'0 0.0
2016-Aug-20 23:33N 38°13' E 015°15'0 0.0
2016-Aug-20 22:33N 38°13' E 015°15'0 0.0
2016-Aug-20 21:33N 38°13' E 015°15'0 0.0
2016-Aug-20 20:33N 38°13' E 015°15'0 0.0
2016-Aug-20 19:33N 38°13' E 015°15'0 0.0
2016-Aug-20 18:33N 38°13' E 015°15'5 4.9
2016-Aug-20 17:33N 38°18' E 015°14'1413.8
2016-Aug-20 16:33N 38°25' E 014°59'3 3.3
2016-Aug-20 15:30N 38°28' E 014°57'16 6.5
2016-Aug-20 13:05N 38°33' E 014°39'12 2.6
2016-Aug-20 08:25N 38°33' E 014°54'5 5.4
2016-Aug-20 07:28N 38°28' E 014°57'11 8.0
2016-Aug-20 06:09N 38°21' E 015°07'813.8
2016-Aug-20 05:33N 38°16' E 015°16'4 3.6
2016-Aug-20 04:33N 38°13' E 015°15'0 0.0
2016-Aug-20 03:33N 38°13' E 015°15'0 0.0
2016-Aug-20 02:33N 38°13' E 015°15'0 0.0
2016-Aug-20 01:33N 38°13' E 015°15'0 0.0
2016-Aug-20 00:33N 38°13' E 015°15'0 0.0
2016-Aug-19 23:33N 38°13' E 015°15'0 0.0
2016-Aug-19 22:33N 38°13' E 015°15'0 0.0
2016-Aug-19 21:34N 38°13' E 015°15'0 0.0
2016-Aug-19 20:33N 38°13' E 015°15'0 0.0
2016-Aug-19 19:33N 38°13' E 015°15'0 0.0
2016-Aug-19 18:33N 38°13' E 015°15'3 3.0
2016-Aug-19 17:33N 38°16' E 015°16'1212.4
2016-Aug-19 16:34N 38°23' E 015°03'7 6.8
2016-Aug-19 15:33N 38°28' E 014°57'4 4.1
2016-Aug-19 14:33N 38°32' E 014°56'4 4.5
2016-Aug-19 13:33N 38°36' E 015°00'9 8.8
2016-Aug-19 12:33N 38°42' E 015°07'8 7.5
2016-Aug-19 11:30N 38°48' E 015°14'3 2.7
2016-Aug-19 10:33N 38°47' E 015°11'1010.1
2016-Aug-19 09:33N 38°38' E 015°05'1110.1
2016-Aug-19 08:29N 38°33' E 014°52'6 6.9
2016-Aug-19 07:33N 38°28' E 014°57'3 3.2
2016-Aug-19 06:33N 38°25' E 014°58'1413.8
2016-Aug-19 05:33N 38°18' E 015°13'5 2.2
2016-Aug-19 03:23N 38°13' E 015°15'0 0.0
2016-Aug-19 02:20N 38°13' E 015°15'0 0.0
2016-Aug-19 01:33N 38°13' E 015°15'0 0.0
2016-Aug-18 23:04N 38°13' E 015°15'0 0.0
2016-Aug-18 19:32N 38°13' E 015°15'0 0.0
2016-Aug-18 18:33N 38°13' E 015°15'4 3.6
2016-Aug-18 17:33N 38°16' E 015°16'1414.0
2016-Aug-18 16:33N 38°24' E 015°01'5 5.0
2016-Aug-18 15:33N 38°28' E 014°57'6 6.4
2016-Aug-18 14:34N 38°33' E 014°53'14 6.4
2016-Aug-18 12:26N 38°34' E 014°35'13 3.5
2016-Aug-18 08:32N 38°33' E 014°53'7 6.7
2016-Aug-18 07:33N 38°28' E 014°58'3 3.3
2016-Aug-18 06:32N 38°25' E 014°58'1313.7
2016-Aug-18 05:34N 38°18' E 015°13'5 5.3
2016-Aug-18 04:33N 38°13' E 015°15'0 0.0
2016-Aug-18 03:33N 38°13' E 015°15'0 0.0
2016-Aug-18 02:34N 38°13' E 015°15'0 0.0
2016-Aug-18 01:33N 38°13' E 015°15'0 0.0
2016-Aug-18 00:33N 38°13' E 015°15'0 0.0
2016-Aug-17 23:34N 38°13' E 015°15'0 0.0
2016-Aug-17 22:34N 38°13' E 015°15'0 0.0
2016-Aug-17 21:34N 38°13' E 015°15'0 0.0
2016-Aug-17 20:33N 38°13' E 015°15'0 0.0
2016-Aug-17 19:33N 38°13' E 015°15'0 0.0
2016-Aug-17 18:34N 38°13' E 015°15'6 6.0
2016-Aug-17 17:33N 38°19' E 015°12'1310.4
2016-Aug-17 16:18N 38°25' E 014°58'3 4.3
2016-Aug-17 15:33N 38°28' E 014°58'18 7.6
2016-Aug-17 13:12N 38°34' E 014°36'3 4.7
2016-Aug-17 12:28N 38°32' E 014°32'17 4.4
2016-Aug-17 08:28N 38°33' E 014°55'5 5.4
2016-Aug-17 07:33N 38°28' E 014°57'4 3.6
2016-Aug-17 06:33N 38°25' E 014°59'1413.9
2016-Aug-17 05:34N 38°17' E 015°14'5 4.5
2016-Aug-17 04:33N 38°13' E 015°15'0 0.0
2016-Aug-17 03:33N 38°13' E 015°15'0 0.0
2016-Aug-17 02:33N 38°13' E 015°15'0 0.0
2016-Aug-17 01:33N 38°13' E 015°15'0 0.0
2016-Aug-17 00:33N 38°13' E 015°15'0 0.0
2016-Aug-16 23:33N 38°13' E 015°15'0 0.0
2016-Aug-16 22:33N 38°13' E 015°15'0 0.0
2016-Aug-16 21:33N 38°13' E 015°15'0 0.0
2016-Aug-16 20:33N 38°13' E 015°15'0 0.0
2016-Aug-16 19:33N 38°13' E 015°15'0 0.0
2016-Aug-16 18:33N 38°13' E 015°15'3 2.9
2016-Aug-16 17:33N 38°16' E 015°16'1413.7
2016-Aug-16 16:33N 38°24' E 015°02'6 5.8
2016-Aug-16 15:33N 38°28' E 014°57'12 5.3
2016-Aug-16 13:20N 38°38' E 015°05'12 1.9
2016-Aug-16 07:14N 38°28' E 014°58'20 7.5
2016-Aug-16 04:34N 38°13' E 015°15'0 0.0
2016-Aug-16 03:34N 38°13' E 015°15'0 0.0
2016-Aug-16 02:34N 38°13' E 015°15'0 0.0
2016-Aug-16 01:34N 38°13' E 015°15'0 0.0
2016-Aug-16 00:34N 38°13' E 015°15'0 0.0
2016-Aug-15 23:34N 38°13' E 015°15'0 0.0
2016-Aug-15 22:34N 38°13' E 015°15'0 0.0
2016-Aug-15 21:34N 38°13' E 015°15'0 0.0
2016-Aug-15 20:33N 38°13' E 015°15'0 0.0
2016-Aug-15 19:33N 38°13' E 015°15'0 0.0
2016-Aug-15 18:34N 38°13' E 015°15'1 0.9
2016-Aug-15 17:33N 38°13' E 015°16'1312.6
2016-Aug-15 16:33N 38°22' E 015°05'8 8.0
2016-Aug-15 15:34N 38°28' E 014°58'5 5.1
2016-Aug-15 14:33N 38°33' E 014°55'15 6.9
2016-Aug-15 12:24N 38°33' E 014°36'13 3.2
2016-Aug-15 08:19N 38°33' E 014°53'6 8.2
2016-Aug-15 07:33N 38°30' E 014°59'5 4.8
2016-Aug-15 06:33N 38°25' E 014°58'18 8.8
2016-Aug-15 04:33N 38°13' E 015°15'0 0.0
2016-Aug-15 03:33N 38°13' E 015°15'0 0.0
2016-Aug-15 02:33N 38°13' E 015°15'0 0.0
2016-Aug-15 01:33N 38°13' E 015°15'0 0.0
2016-Aug-15 00:33N 38°13' E 015°15'0 0.0
2016-Aug-14 23:33N 38°13' E 015°15'0 0.0
2016-Aug-14 22:33N 38°13' E 015°15'0 0.0
2016-Aug-14 21:33N 38°13' E 015°15'0 0.0
2016-Aug-14 20:33N 38°13' E 015°15'0 0.0
2016-Aug-14 19:33N 38°13' E 015°15'0 0.0
2016-Aug-14 18:33N 38°13' E 015°15'  
Track history (hours):
 
Tides and Currents Weather Stations Pressure Air Temp Water Temp Dewpoint Dewpoint Depression Visibility Wind Speed Wind Dir Waves Ship Positions

Pietro Novelli

Last reported at 2016-Aug-24 17:34 UTC. Time now 2016-Aug-24 17:57 UTC.
Position N 38°13' E 015°15'.

Length 91 m; draft 3.7 m.

Type: Ship. MMSI: 247000300.

Date/timePositionNaut miles runAvg speedWind from/ knotsBaromVisibWave heightAir tempDewpointWater temp
2016-Aug-24 17:34N 38°13' E 015°15'1212.2
2016-Aug-24 16:33N 38°22' E 015°05'8 8.5
2016-Aug-24 15:34N 38°28' E 014°58'7 6.4
2016-Aug-24 14:32N 38°33' E 014°53'15 7.0
2016-Aug-24 12:26N 38°33' E 014°34'0 0.0
2016-Aug-24 10:17N 38°33' E 014°34'15 8.1
2016-Aug-24 08:29N 38°33' E 014°53'7 7.4
2016-Aug-24 07:33N 38°29' E 014°59'3 3.4
2016-Aug-24 06:33N 38°25' E 014°58'18 5.8
2016-Aug-24 03:29N 38°13' E 015°15'0 0.0
2016-Aug-24 00:22N 38°13' E 015°15'0 0.0
2016-Aug-23 23:33N 38°13' E 015°15'0 0.0
2016-Aug-23 19:14N 38°13' E 015°15'0 0.0
2016-Aug-23 18:22N 38°13' E 015°15'7 8.9
2016-Aug-23 17:34N 38°19' E 015°10'1110.3
2016-Aug-23 16:28N 38°25' E 014°58'4 3.9
2016-Aug-23 15:33N 38°28' E 014°59'7 6.9
2016-Aug-23 14:33N 38°33' E 014°52'1111.0
2016-Aug-23 13:33N 38°38' E 015°05'6 5.3
2016-Aug-23 12:31N 38°43' E 015°08'7 7.0
2016-Aug-23 11:33N 38°48' E 015°14'9 6.5
2016-Aug-23 10:14N 38°42' E 015°06'6 8.2
2016-Aug-23 09:33N 38°37' E 015°02'8 8.0
2016-Aug-23 08:33N 38°33' E 014°54'6 5.5
2016-Aug-23 07:33N 38°28' E 014°57'3 3.4
2016-Aug-23 06:32N 38°25' E 014°59'1413.8
2016-Aug-23 05:33N 38°18' E 015°14'5 0.4
2016-Aug-22 19:10N 38°13' E 015°15'0 0.0
2016-Aug-22 18:17N 38°13' E 015°15'6 7.8
2016-Aug-22 17:33N 38°19' E 015°12'1310.6
2016-Aug-22 16:19N 38°25' E 014°58'3 4.4
2016-Aug-22 15:33N 38°28' E 014°57'6 6.1
2016-Aug-22 14:31N 38°33' E 014°52'0 0.0
2016-Aug-22 08:32N 38°33' E 014°52'6 6.6
2016-Aug-22 07:33N 38°28' E 014°57'3 3.4
2016-Aug-22 06:33N 38°25' E 014°59'1414.1
2016-Aug-22 05:33N 38°18' E 015°14'5 4.8
2016-Aug-22 04:33N 38°13' E 015°15'0 0.0
2016-Aug-22 03:33N 38°13' E 015°15'0 0.0
2016-Aug-22 02:33N 38°13' E 015°15'0 0.0
2016-Aug-22 01:33N 38°13' E 015°15'0 0.0
2016-Aug-22 00:33N 38°13' E 015°15'0 0.0
2016-Aug-21 23:33N 38°13' E 015°15'0 0.0
2016-Aug-21 22:33N 38°13' E 015°15'0 0.0
2016-Aug-21 21:33N 38°13' E 015°15'0 0.0
2016-Aug-21 20:33N 38°13' E 015°15'0 0.0
2016-Aug-21 19:33N 38°13' E 015°15'0 0.0
2016-Aug-21 18:33N 38°13' E 015°15'3 3.1
2016-Aug-21 17:33N 38°16' E 015°16'1413.8
2016-Aug-21 16:33N 38°24' E 015°01'6 5.6
2016-Aug-21 15:33N 38°28' E 014°57'6 5.8
2016-Aug-21 14:31N 38°33' E 014°53'14 6.9
2016-Aug-21 12:28N 38°34' E 014°35'1111.3
2016-Aug-21 11:32N 38°32' E 014°22'24 8.1
2016-Aug-21 08:33N 38°33' E 014°53'6 6.4
2016-Aug-21 07:33N 38°28' E 014°57'4 3.7
2016-Aug-21 06:33N 38°25' E 014°59'1413.9
2016-Aug-21 05:33N 38°18' E 015°14'5 4.6
2016-Aug-21 04:33N 38°13' E 015°15'0 0.0
2016-Aug-21 03:33N 38°13' E 015°15'0 0.0
2016-Aug-21 02:33N 38°13' E 015°15'0 0.0
2016-Aug-21 01:34N 38°13' E 015°15'0 0.0
2016-Aug-21 00:33N 38°13' E 015°15'0 0.0
2016-Aug-20 23:33N 38°13' E 015°15'0 0.0
2016-Aug-20 22:33N 38°13' E 015°15'0 0.0
2016-Aug-20 21:33N 38°13' E 015°15'0 0.0
2016-Aug-20 20:33N 38°13' E 015°15'0 0.0
2016-Aug-20 19:33N 38°13' E 015°15'0 0.0
2016-Aug-20 18:33N 38°13' E 015°15'5 4.9
2016-Aug-20 17:33N 38°18' E 015°14'1413.8
2016-Aug-20 16:33N 38°25' E 014°59'3 3.3
2016-Aug-20 15:30N 38°28' E 014°57'16 6.5
2016-Aug-20 13:05N 38°33' E 014°39'12 2.6
2016-Aug-20 08:25N 38°33' E 014°54'5 5.4
2016-Aug-20 07:28N 38°28' E 014°57'11 8.0
2016-Aug-20 06:09N 38°21' E 015°07'813.8
2016-Aug-20 05:33N 38°16' E 015°16'4 3.6
2016-Aug-20 04:33N 38°13' E 015°15'0 0.0
2016-Aug-20 03:33N 38°13' E 015°15'0 0.0
2016-Aug-20 02:33N 38°13' E 015°15'0 0.0
2016-Aug-20 01:33N 38°13' E 015°15'0 0.0
2016-Aug-20 00:33N 38°13' E 015°15'0 0.0
2016-Aug-19 23:33N 38°13' E 015°15'0 0.0
2016-Aug-19 22:33N 38°13' E 015°15'0 0.0
2016-Aug-19 21:34N 38°13' E 015°15'0 0.0
2016-Aug-19 20:33N 38°13' E 015°15'0 0.0
2016-Aug-19 19:33N 38°13' E 015°15'0 0.0
2016-Aug-19 18:33N 38°13' E 015°15'3 3.0
2016-Aug-19 17:33N 38°16' E 015°16'1212.4
2016-Aug-19 16:34N 38°23' E 015°03'7 6.8
2016-Aug-19 15:33N 38°28' E 014°57'4 4.1
2016-Aug-19 14:33N 38°32' E 014°56'4 4.5
2016-Aug-19 13:33N 38°36' E 015°00'9 8.8
2016-Aug-19 12:33N 38°42' E 015°07'8 7.5
2016-Aug-19 11:30N 38°48' E 015°14'3 2.7
2016-Aug-19 10:33N 38°47' E 015°11'1010.1
2016-Aug-19 09:33N 38°38' E 015°05'1110.1
2016-Aug-19 08:29N 38°33' E 014°52'6 6.9
2016-Aug-19 07:33N 38°28' E 014°57'3 3.2
2016-Aug-19 06:33N 38°25' E 014°58'1413.8
2016-Aug-19 05:33N 38°18' E 015°13'5 2.2
2016-Aug-19 03:23N 38°13' E 015°15'0 0.0
2016-Aug-19 02:20N 38°13' E 015°15'0 0.0
2016-Aug-19 01:33N 38°13' E 015°15'0 0.0
2016-Aug-18 23:04N 38°13' E 015°15'0 0.0
2016-Aug-18 19:32N 38°13' E 015°15'0 0.0
2016-Aug-18 18:33N 38°13' E 015°15'4 3.6
2016-Aug-18 17:33N 38°16' E 015°16'1414.0
2016-Aug-18 16:33N 38°24' E 015°01'5 5.0
2016-Aug-18 15:33N 38°28' E 014°57'6 6.4
2016-Aug-18 14:34N 38°33' E 014°53'14 6.4
2016-Aug-18 12:26N 38°34' E 014°35'13 3.5
2016-Aug-18 08:32N 38°33' E 014°53'7 6.7
2016-Aug-18 07:33N 38°28' E 014°58'3 3.3
2016-Aug-18 06:32N 38°25' E 014°58'1313.7
2016-Aug-18 05:34N 38°18' E 015°13'5 5.3
2016-Aug-18 04:33N 38°13' E 015°15'0 0.0
2016-Aug-18 03:33N 38°13' E 015°15'0 0.0
2016-Aug-18 02:34N 38°13' E 015°15'0 0.0
2016-Aug-18 01:33N 38°13' E 015°15'0 0.0
2016-Aug-18 00:33N 38°13' E 015°15'0 0.0
2016-Aug-17 23:34N 38°13' E 015°15'0 0.0
2016-Aug-17 22:34N 38°13' E 015°15'0 0.0
2016-Aug-17 21:34N 38°13' E 015°15'0 0.0
2016-Aug-17 20:33N 38°13' E 015°15'0 0.0
2016-Aug-17 19:33N 38°13' E 015°15'0 0.0
2016-Aug-17 18:34N 38°13' E 015°15'6 6.0
2016-Aug-17 17:33N 38°19' E 015°12'1310.4
2016-Aug-17 16:18N 38°25' E 014°58'3 4.3
2016-Aug-17 15:33N 38°28' E 014°58'18 7.6
2016-Aug-17 13:12N 38°34' E 014°36'3 4.7
2016-Aug-17 12:28N 38°32' E 014°32'17 4.4
2016-Aug-17 08:28N 38°33' E 014°55'5 5.4
2016-Aug-17 07:33N 38°28' E 014°57'4 3.6
2016-Aug-17 06:33N 38°25' E 014°59'1413.9
2016-Aug-17 05:34N 38°17' E 015°14'5 4.5
2016-Aug-17 04:33N 38°13' E 015°15'0 0.0
2016-Aug-17 03:33N 38°13' E 015°15'0 0.0
2016-Aug-17 02:33N 38°13' E 015°15'0 0.0
2016-Aug-17 01:33N 38°13' E 015°15'0 0.0
2016-Aug-17 00:33N 38°13' E 015°15'0 0.0
2016-Aug-16 23:33N 38°13' E 015°15'0 0.0
2016-Aug-16 22:33N 38°13' E 015°15'0 0.0
2016-Aug-16 21:33N 38°13' E 015°15'0 0.0
2016-Aug-16 20:33N 38°13' E 015°15'0 0.0
2016-Aug-16 19:33N 38°13' E 015°15'0 0.0
2016-Aug-16 18:33N 38°13' E 015°15'3 2.9
2016-Aug-16 17:33N 38°16' E 015°16'1413.7
2016-Aug-16 16:33N 38°24' E 015°02'6 5.8
2016-Aug-16 15:33N 38°28' E 014°57'12 5.3
2016-Aug-16 13:20N 38°38' E 015°05'12 1.9
2016-Aug-16 07:14N 38°28' E 014°58'20 7.5
2016-Aug-16 04:34N 38°13' E 015°15'0 0.0
2016-Aug-16 03:34N 38°13' E 015°15'0 0.0
2016-Aug-16 02:34N 38°13' E 015°15'0 0.0
2016-Aug-16 01:34N 38°13' E 015°15'0 0.0
2016-Aug-16 00:34N 38°13' E 015°15'0 0.0
2016-Aug-15 23:34N 38°13' E 015°15'0 0.0
2016-Aug-15 22:34N 38°13' E 015°15'0 0.0
2016-Aug-15 21:34N 38°13' E 015°15'0 0.0
2016-Aug-15 20:33N 38°13' E 015°15'0 0.0
2016-Aug-15 19:33N 38°13' E 015°15'0 0.0
2016-Aug-15 18:34N 38°13' E 015°15'1 0.9
2016-Aug-15 17:33N 38°13' E 015°16'1312.6
2016-Aug-15 16:33N 38°22' E 015°05'8 8.0
2016-Aug-15 15:34N 38°28' E 014°58'5 5.1
2016-Aug-15 14:33N 38°33' E 014°55'15 6.9
2016-Aug-15 12:24N 38°33' E 014°36'13 3.2
2016-Aug-15 08:19N 38°33' E 014°53'6 8.2
2016-Aug-15 07:33N 38°30' E 014°59'5 4.8
2016-Aug-15 06:33N 38°25' E 014°58'18 8.8
2016-Aug-15 04:33N 38°13' E 015°15'0 0.0
2016-Aug-15 03:33N 38°13' E 015°15'0 0.0
2016-Aug-15 02:33N 38°13' E 015°15'0 0.0
2016-Aug-15 01:33N 38°13' E 015°15'0 0.0
2016-Aug-15 00:33N 38°13' E 015°15'0 0.0
2016-Aug-14 23:33N 38°13' E 015°15'0 0.0
2016-Aug-14 22:33N 38°13' E 015°15'0 0.0
2016-Aug-14 21:33N 38°13' E 015°15'0 0.0
2016-Aug-14 20:33N 38°13' E 015°15'0 0.0
2016-Aug-14 19:33N 38°13' E 015°15'0 0.0
2016-Aug-14 18:33N 38°13' E 015°15'  

Dump ship's entire track history